createdAt,value
2023-05-14T00:02:08.642Z,6.57
2023-05-14T00:04:36.277Z,6.53
2023-05-14T00:07:03.933Z,6.60
2023-05-14T00:09:31.468Z,6.68
2023-05-14T00:12:00.359Z,6.40
2023-05-14T00:14:27.943Z,6.75
2023-05-14T00:16:55.773Z,6.60
2023-05-14T00:19:23.607Z,6.35
2023-05-14T00:21:51.151Z,6.50
2023-05-14T00:24:18.716Z,6.73
2023-05-14T00:26:46.326Z,6.80
2023-05-14T00:29:15.251Z,6.68
2023-05-14T00:31:42.868Z,6.47
2023-05-14T00:34:10.676Z,6.78
2023-05-14T00:36:38.298Z,6.73
2023-05-14T00:39:05.929Z,6.65
2023-05-14T00:41:34.040Z,6.22
2023-05-14T00:44:01.715Z,6.70
2023-05-14T00:46:30.761Z,6.57
2023-05-14T00:48:59.333Z,7.47
2023-05-14T00:51:27.115Z,7.05
2023-05-14T00:53:55.721Z,6.65
2023-05-14T00:56:23.521Z,6.53
2023-05-14T00:58:51.125Z,6.47
2023-05-14T01:01:18.724Z,6.87
2023-05-14T01:03:48.836Z,7.00
2023-05-14T01:06:22.546Z,6.88
2023-05-14T01:09:00.511Z,6.88
2023-05-14T01:11:32.920Z,7.30
2023-05-14T01:14:08.950Z,7.50
2023-05-14T01:16:39.821Z,7.88
2023-05-14T01:19:19.545Z,7.38
2023-05-14T01:21:48.493Z,6.43
2023-05-14T01:24:16.042Z,7.38
2023-05-14T01:26:43.700Z,7.00
2023-05-14T01:29:20.295Z,6.97
2023-05-14T01:31:49.778Z,6.78
2023-05-14T01:34:20.861Z,6.50
2023-05-14T01:36:51.449Z,6.88
2023-05-14T01:39:20.111Z,6.90
2023-05-14T01:41:48.862Z,7.07
2023-05-14T01:44:16.625Z,6.60
2023-05-14T01:46:44.164Z,6.57
2023-05-14T01:49:11.720Z,6.65
2023-05-14T01:51:39.311Z,6.33
2023-05-14T01:54:08.221Z,6.55
2023-05-14T01:56:35.788Z,6.43
2023-05-14T01:59:03.376Z,6.75
2023-05-14T02:01:31.677Z,6.45
2023-05-14T02:03:59.588Z,6.93
2023-05-14T02:06:27.523Z,6.68
2023-05-14T02:08:56.831Z,6.50
2023-05-14T02:11:26.134Z,6.57
2023-05-14T02:13:53.647Z,7.05
2023-05-14T02:16:21.231Z,6.87
2023-05-14T02:18:48.830Z,6.47
2023-05-14T02:21:16.462Z,7.00
2023-05-14T02:23:44.260Z,7.22
2023-05-14T02:26:13.212Z,6.75
2023-05-14T02:28:42.045Z,6.97
2023-05-14T02:31:09.685Z,7.00
2023-05-14T02:33:37.397Z,6.72
2023-05-14T02:36:05.531Z,6.90
2023-05-14T02:38:33.199Z,7.07
2023-05-14T02:41:00.730Z,6.23
2023-05-14T02:43:28.335Z,7.65
2023-05-14T02:45:57.264Z,7.18
2023-05-14T02:48:24.829Z,6.88
2023-05-14T02:50:52.380Z,8.07
2023-05-14T02:53:20.034Z,6.80
2023-05-14T02:55:47.605Z,7.20
2023-05-14T02:58:15.241Z,7.35
2023-05-14T03:00:42.841Z,7.35
2023-05-14T03:03:12.442Z,7.20
2023-05-14T03:05:40.426Z,6.70
2023-05-14T03:08:07.985Z,6.88
2023-05-14T03:10:35.531Z,7.45
2023-05-14T03:13:03.176Z,7.00
2023-05-14T03:15:30.773Z,6.82
2023-05-14T03:17:58.367Z,7.20
2023-05-14T03:20:27.710Z,7.00
2023-05-14T03:22:56.025Z,7.05
2023-05-14T03:25:23.572Z,7.45
2023-05-14T03:27:52.356Z,7.47
2023-05-14T03:30:20.169Z,6.60
2023-05-14T03:32:49.480Z,7.25
2023-05-14T03:35:17.329Z,6.70
2023-05-14T03:37:46.233Z,7.10
2023-05-14T03:40:13.826Z,6.85
2023-05-14T03:42:41.452Z,7.00
2023-05-14T03:45:11.693Z,6.97
2023-05-14T03:47:39.340Z,7.47
2023-05-14T03:50:08.606Z,7.50
2023-05-14T03:52:36.359Z,7.35
2023-05-14T03:55:05.839Z,7.10
2023-05-14T03:57:33.445Z,7.97
2023-05-14T04:00:01.029Z,7.60
2023-05-14T04:02:28.732Z,7.90
2023-05-14T04:04:56.578Z,7.80
2023-05-14T04:07:24.164Z,7.77
2023-05-14T04:09:52.044Z,7.50
2023-05-14T04:12:20.987Z,7.50
2023-05-14T04:14:48.565Z,7.80
2023-05-14T04:17:16.058Z,8.02
2023-05-14T04:19:43.613Z,7.57
2023-05-14T04:22:11.173Z,7.50
2023-05-14T04:24:38.666Z,7.63
2023-05-14T04:27:06.848Z,7.30
2023-05-14T04:29:35.698Z,6.97
2023-05-14T04:32:03.236Z,7.37
2023-05-14T04:34:30.782Z,7.55
2023-05-14T04:36:58.319Z,7.55
2023-05-14T04:39:25.863Z,6.90
2023-05-14T04:41:53.475Z,7.00
2023-05-14T04:44:21.016Z,6.93
2023-05-14T04:46:49.913Z,7.20
2023-05-14T04:49:17.429Z,6.97
2023-05-14T04:51:44.964Z,7.10
2023-05-14T04:54:12.553Z,6.95
2023-05-14T04:56:40.199Z,7.23
2023-05-14T04:59:07.779Z,6.97
2023-05-14T05:01:35.496Z,7.28
2023-05-14T05:04:04.501Z,7.22
2023-05-14T05:06:32.357Z,6.25
2023-05-14T05:09:01.937Z,6.60
2023-05-14T05:11:29.885Z,6.50
2023-05-14T05:13:57.455Z,6.82
2023-05-14T05:16:24.980Z,7.05
2023-05-14T05:18:52.652Z,6.72
2023-05-14T05:21:21.619Z,7.17
2023-05-14T05:23:49.191Z,6.68
2023-05-14T05:26:16.740Z,6.57
2023-05-14T05:28:44.308Z,6.47
2023-05-14T05:31:11.876Z,6.40
2023-05-14T05:33:40.402Z,6.57
2023-05-14T05:36:08.571Z,6.65
2023-05-14T05:38:37.568Z,6.32
2023-05-14T05:41:05.104Z,6.80
2023-05-14T05:43:33.531Z,6.68
2023-05-14T05:46:01.509Z,6.50
2023-05-14T05:48:29.201Z,6.50
2023-05-14T05:50:56.758Z,6.55
2023-05-14T05:53:24.461Z,6.40
2023-05-14T05:55:53.368Z,6.97
2023-05-14T05:58:21.054Z,7.17
2023-05-14T06:00:48.593Z,6.05
2023-05-14T06:03:16.290Z,6.20
2023-05-14T06:05:43.966Z,6.57
2023-05-14T06:08:11.540Z,6.35
2023-05-14T06:10:39.117Z,6.40
2023-05-14T06:13:07.987Z,6.10
2023-05-14T06:15:35.583Z,5.82
2023-05-14T06:18:03.175Z,6.05
2023-05-14T06:20:31.051Z,6.10
2023-05-14T06:22:59.220Z,6.20
2023-05-14T06:25:26.726Z,6.00
2023-05-14T06:27:54.284Z,6.30
2023-05-14T06:30:23.536Z,5.97
2023-05-14T06:32:51.634Z,5.97
2023-05-14T06:35:19.444Z,5.37
2023-05-14T06:37:47.024Z,5.50
2023-05-14T06:40:16.046Z,5.35
2023-05-14T06:42:43.550Z,5.45
2023-05-14T06:45:11.930Z,5.63
2023-05-14T06:47:41.161Z,5.00
2023-05-14T06:50:10.831Z,6.07
2023-05-14T06:52:39.152Z,5.00
2023-05-14T06:55:07.588Z,4.70
2023-05-14T06:57:35.120Z,5.03
2023-05-14T07:00:03.676Z,5.43
2023-05-14T07:02:31.559Z,5.13
2023-05-14T07:05:00.688Z,4.85
2023-05-14T07:07:28.204Z,5.10
2023-05-14T07:09:55.729Z,5.03
2023-05-14T07:12:23.247Z,4.80
2023-05-14T07:14:51.132Z,4.97
2023-05-14T07:17:18.748Z,4.97
2023-05-14T07:19:47.110Z,4.28
2023-05-14T07:22:16.001Z,4.60
2023-05-14T07:24:43.497Z,4.50
2023-05-14T07:27:12.326Z,4.40
2023-05-14T07:29:39.926Z,4.30
2023-05-14T07:32:07.724Z,4.40
2023-05-14T07:34:35.324Z,4.03
2023-05-14T07:37:03.428Z,4.67
2023-05-14T07:39:32.309Z,3.95
2023-05-14T07:41:59.796Z,4.05
2023-05-14T07:44:27.339Z,4.07
2023-05-14T07:46:54.950Z,4.10
2023-05-14T07:49:22.522Z,3.93
2023-05-14T07:51:50.087Z,3.92
2023-05-14T07:54:17.760Z,4.15
2023-05-14T07:56:46.707Z,4.00
2023-05-14T07:59:14.289Z,4.38
2023-05-14T08:01:41.894Z,4.30
2023-05-14T08:04:11.517Z,4.20
2023-05-14T08:06:39.105Z,4.03
2023-05-14T08:09:06.674Z,4.28
2023-05-14T08:11:34.294Z,4.18
2023-05-14T08:14:03.144Z,3.93
2023-05-14T08:16:30.794Z,3.90
2023-05-14T08:18:58.442Z,3.95
2023-05-14T08:21:26.237Z,4.00
2023-05-14T08:23:53.793Z,4.30
2023-05-14T08:26:21.864Z,4.07
2023-05-14T08:28:49.354Z,4.13
2023-05-14T08:31:18.268Z,4.00
2023-05-14T08:33:45.921Z,4.13
2023-05-14T08:36:13.484Z,3.85
2023-05-14T08:38:41.996Z,4.00
2023-05-14T08:41:11.484Z,3.40
2023-05-14T08:43:45.167Z,3.58
2023-05-14T08:46:15.911Z,3.20
2023-05-14T08:48:52.744Z,3.55
2023-05-14T08:51:20.443Z,3.70
2023-05-14T08:53:49.046Z,3.53
2023-05-14T08:56:19.112Z,3.28
2023-05-14T08:58:46.784Z,3.50
2023-05-14T09:01:14.370Z,3.50
2023-05-14T09:03:42.458Z,3.57
2023-05-14T09:06:13.491Z,3.35
2023-05-14T09:08:41.167Z,3.22
2023-05-14T09:11:08.686Z,3.20
2023-05-14T09:13:38.749Z,3.33
2023-05-14T09:16:07.135Z,3.50
2023-05-14T09:18:37.042Z,3.55
2023-05-14T09:21:05.540Z,3.50
2023-05-14T09:23:35.251Z,3.20
2023-05-14T09:26:05.767Z,3.33
2023-05-14T09:28:33.326Z,3.30
2023-05-14T09:31:00.885Z,3.28
2023-05-14T09:33:29.030Z,3.55
2023-05-14T09:35:59.794Z,3.30
2023-05-14T09:38:30.155Z,3.47
2023-05-14T09:40:59.647Z,3.50
2023-05-14T09:43:27.657Z,3.50
2023-05-14T09:45:55.364Z,3.40
2023-05-14T09:48:22.920Z,3.42
2023-05-14T09:50:51.479Z,3.20
2023-05-14T09:53:19.624Z,3.33
2023-05-14T09:55:47.422Z,3.38
2023-05-14T09:58:16.373Z,3.40
2023-05-14T10:00:46.080Z,3.13
2023-05-14T10:03:17.888Z,3.65
2023-05-14T10:05:49.949Z,3.50
2023-05-14T10:08:25.199Z,3.60
2023-05-14T10:10:54.611Z,3.40
2023-05-14T10:13:28.205Z,3.25
2023-05-14T10:16:01.494Z,3.20
2023-05-14T10:18:32.359Z,3.70
2023-05-14T10:21:05.640Z,3.17
2023-05-14T10:23:33.303Z,3.47
2023-05-14T10:26:01.494Z,3.50
2023-05-14T10:28:30.978Z,3.20
2023-05-14T10:30:58.584Z,3.40
2023-05-14T10:33:26.134Z,3.17
2023-05-14T10:36:00.980Z,3.20
2023-05-14T10:38:29.509Z,3.03
2023-05-14T10:40:59.657Z,3.03
2023-05-14T10:43:29.254Z,3.17
2023-05-14T10:46:00.739Z,3.60
2023-05-14T10:48:28.438Z,2.80
2023-05-14T10:50:57.217Z,2.92
2023-05-14T10:53:33.020Z,2.90
2023-05-14T10:56:04.402Z,3.03
2023-05-14T10:58:33.726Z,3.10
2023-05-14T11:01:02.721Z,3.13
2023-05-14T11:03:30.839Z,3.45
2023-05-14T11:05:58.517Z,3.05
2023-05-14T11:08:29.397Z,3.00
2023-05-14T11:10:58.013Z,2.88
2023-05-14T11:13:27.055Z,3.00
2023-05-14T11:15:54.816Z,3.35
2023-05-14T11:18:31.190Z,3.05
2023-05-14T11:21:01.979Z,3.00
2023-05-14T11:23:30.125Z,3.33
2023-05-14T11:25:57.980Z,2.97
2023-05-14T11:28:27.377Z,3.35
2023-05-14T11:30:55.147Z,3.00
2023-05-14T11:33:22.846Z,3.50
2023-05-14T11:35:51.911Z,3.45
2023-05-14T11:38:21.117Z,3.35
2023-05-14T11:40:53.530Z,3.50
2023-05-14T11:43:23.542Z,3.70
2023-05-14T11:45:51.682Z,3.40
2023-05-14T11:48:19.493Z,3.60
2023-05-14T11:50:48.832Z,3.60
2023-05-14T11:53:20.833Z,3.20
2023-05-14T11:55:48.634Z,3.50
2023-05-14T11:58:18.781Z,3.90
2023-05-14T12:00:47.351Z,3.45
2023-05-14T12:03:15.110Z,3.83
2023-05-14T12:05:55.568Z,3.80
2023-05-14T12:08:28.063Z,3.40
2023-05-14T12:10:55.800Z,3.90
2023-05-14T12:13:26.368Z,3.88
2023-05-14T12:15:56.383Z,3.58
2023-05-14T12:18:25.930Z,3.80
2023-05-14T12:20:53.724Z,4.00
2023-05-14T12:23:27.589Z,4.00
2023-05-14T12:25:55.209Z,3.45
2023-05-14T12:28:24.264Z,3.95
2023-05-14T12:30:57.729Z,3.85
2023-05-14T12:33:26.444Z,3.58
2023-05-14T12:35:58.852Z,3.53
2023-05-14T12:38:29.427Z,3.67
2023-05-14T12:40:56.933Z,3.67
2023-05-14T12:43:24.572Z,3.63
2023-05-14T12:45:52.054Z,3.67
2023-05-14T12:48:19.592Z,3.33
2023-05-14T12:50:48.479Z,3.63
2023-05-14T12:53:16.692Z,3.40
2023-05-14T12:55:45.563Z,4.00
2023-05-14T12:58:13.138Z,3.67
2023-05-14T13:00:40.700Z,3.77
2023-05-14T13:03:08.238Z,3.70
2023-05-14T13:05:36.204Z,3.70
2023-05-14T13:08:03.974Z,3.50
2023-05-14T13:10:31.504Z,3.50
2023-05-14T13:13:01.937Z,3.60
2023-05-14T13:15:31.441Z,3.65
2023-05-14T13:17:59.073Z,3.50
2023-05-14T13:20:27.412Z,3.97
2023-05-14T13:22:55.033Z,3.95
2023-05-14T13:25:22.999Z,3.80
2023-05-14T13:27:51.583Z,3.47
2023-05-14T13:30:20.672Z,3.80
2023-05-14T13:32:48.414Z,3.42
2023-05-14T13:35:16.139Z,3.80
2023-05-14T13:37:44.339Z,3.70
2023-05-14T13:40:12.998Z,3.30
2023-05-14T13:42:40.667Z,3.40
2023-05-14T13:45:09.286Z,3.42
2023-05-14T13:47:39.388Z,3.55
2023-05-14T13:50:08.562Z,3.60
2023-05-14T13:52:36.116Z,3.60
2023-05-14T13:55:03.761Z,3.72
2023-05-14T13:57:31.277Z,3.40
2023-05-14T13:59:58.803Z,3.40
2023-05-14T14:02:26.443Z,3.30
2023-05-14T14:04:55.480Z,3.58
2023-05-14T14:07:23.067Z,3.50
2023-05-14T14:09:50.569Z,3.67
2023-05-14T14:12:18.212Z,3.80
2023-05-14T14:14:45.907Z,3.60
2023-05-14T14:17:13.564Z,3.75
2023-05-14T14:19:41.285Z,3.78
2023-05-14T14:22:10.137Z,3.72
2023-05-14T14:24:37.661Z,3.50
2023-05-14T14:27:05.850Z,4.00
2023-05-14T14:29:34.319Z,3.70
2023-05-14T14:32:01.956Z,3.50
2023-05-14T14:34:29.606Z,3.42
2023-05-14T14:36:57.162Z,3.50
2023-05-14T14:39:26.486Z,3.53
2023-05-14T14:41:54.080Z,3.72
2023-05-14T14:44:21.664Z,3.60
2023-05-14T14:46:49.194Z,3.70
2023-05-14T14:49:16.727Z,3.72
2023-05-14T14:51:44.322Z,3.67
2023-05-14T14:54:12.035Z,3.88
2023-05-14T14:56:41.132Z,3.55
2023-05-14T14:59:08.713Z,3.60
2023-05-14T15:01:36.404Z,3.70
2023-05-14T15:04:04.016Z,3.40
2023-05-14T15:06:31.563Z,3.70
2023-05-14T15:08:59.522Z,3.47
2023-05-14T15:11:27.247Z,3.70
2023-05-14T15:13:56.210Z,3.67
2023-05-14T15:16:23.957Z,3.83
2023-05-14T15:18:51.506Z,3.80
2023-05-14T15:21:19.082Z,3.75
2023-05-14T15:23:46.778Z,3.70
2023-05-14T15:26:14.486Z,3.60
2023-05-14T15:28:42.020Z,3.67
2023-05-14T15:31:11.142Z,3.97
2023-05-14T15:33:38.910Z,3.90
2023-05-14T15:36:06.957Z,3.65
2023-05-14T15:38:34.665Z,3.88
2023-05-14T15:41:02.321Z,3.60
2023-05-14T15:43:29.863Z,3.75
2023-05-14T15:45:57.546Z,4.07
2023-05-14T15:48:26.620Z,3.70
2023-05-14T15:50:54.248Z,3.65
2023-05-14T15:53:21.883Z,3.93
2023-05-14T15:55:50.602Z,3.53
2023-05-14T15:58:18.132Z,3.58
2023-05-14T16:00:45.696Z,3.80
2023-05-14T16:03:13.352Z,3.53
2023-05-14T16:05:42.694Z,4.00
2023-05-14T16:08:10.290Z,3.40
2023-05-14T16:10:37.909Z,3.90
2023-05-14T16:13:05.509Z,3.70
2023-05-14T16:15:33.097Z,4.25
2023-05-14T16:18:01.158Z,3.43
2023-05-14T16:20:28.803Z,3.85
2023-05-14T16:22:57.883Z,3.65
2023-05-14T16:25:25.427Z,3.60
2023-05-14T16:27:53.001Z,3.65
2023-05-14T16:30:20.540Z,4.00
2023-05-14T16:32:49.411Z,3.88
2023-05-14T16:35:17.549Z,3.70
2023-05-14T16:37:45.269Z,3.63
2023-05-14T16:40:16.027Z,3.75
2023-05-14T16:42:43.568Z,3.50
2023-05-14T16:45:12.154Z,3.75
2023-05-14T16:47:39.749Z,3.85
2023-05-14T16:50:08.508Z,3.70
2023-05-14T16:52:36.046Z,4.10
2023-05-14T16:55:03.594Z,4.17
2023-05-14T16:57:32.469Z,4.35
2023-05-14T17:00:00.048Z,3.85
2023-05-14T17:02:27.660Z,3.80
2023-05-14T17:04:55.304Z,4.00
2023-05-14T17:07:22.933Z,4.00
2023-05-14T17:09:50.475Z,4.55
2023-05-14T17:12:17.968Z,3.70
2023-05-14T17:14:46.806Z,3.90
2023-05-14T17:17:14.313Z,4.18
2023-05-14T17:19:42.287Z,3.80
2023-05-14T17:22:09.845Z,3.63
2023-05-14T17:24:38.952Z,3.58
2023-05-14T17:27:07.212Z,3.50
2023-05-14T17:29:34.771Z,3.70
2023-05-14T17:32:04.751Z,3.93
2023-05-14T17:34:32.312Z,3.70
2023-05-14T17:37:00.787Z,3.60
2023-05-14T17:39:29.020Z,3.50
2023-05-14T17:41:56.525Z,3.58
2023-05-14T17:44:24.094Z,3.63
2023-05-14T17:46:51.778Z,3.80
2023-05-14T17:49:20.738Z,3.67
2023-05-14T17:51:48.539Z,3.85
2023-05-14T17:54:16.181Z,3.72
2023-05-14T17:56:43.999Z,3.87
2023-05-14T17:59:11.515Z,3.90
2023-05-14T18:01:39.072Z,4.10
2023-05-14T18:04:06.828Z,3.75
2023-05-14T18:06:35.806Z,3.83
2023-05-14T18:09:03.721Z,3.80
2023-05-14T18:11:33.734Z,3.58
2023-05-14T18:14:02.011Z,3.80
2023-05-14T18:16:30.073Z,4.10
2023-05-14T18:18:57.686Z,3.95
2023-05-14T18:21:25.257Z,4.10
2023-05-14T18:23:54.203Z,3.88
2023-05-14T18:26:23.070Z,3.72
2023-05-14T18:28:50.633Z,3.67
2023-05-14T18:31:18.176Z,3.65
2023-05-14T18:33:45.814Z,3.90
2023-05-14T18:36:13.476Z,4.18
2023-05-14T18:38:41.813Z,3.90
2023-05-14T18:41:10.767Z,4.13
2023-05-14T18:43:38.267Z,4.10
2023-05-14T18:46:05.968Z,4.13
2023-05-14T18:48:33.885Z,4.30
2023-05-14T18:51:01.432Z,4.22
2023-05-14T18:53:29.278Z,4.25
2023-05-14T18:55:56.817Z,4.95
2023-05-14T18:58:25.693Z,5.03
2023-05-14T19:00:53.345Z,4.55
2023-05-14T19:03:20.977Z,4.40
2023-05-14T19:05:50.471Z,4.85
2023-05-14T19:08:18.196Z,4.63
2023-05-14T19:10:45.707Z,4.93
2023-05-14T19:13:13.212Z,5.50
2023-05-14T19:15:44.849Z,5.72
2023-05-14T19:18:13.803Z,5.60
2023-05-14T19:20:42.170Z,4.90
2023-05-14T19:23:09.686Z,4.70
2023-05-14T19:25:37.261Z,4.70
2023-05-14T19:28:05.831Z,4.80
2023-05-14T19:30:33.406Z,5.05
2023-05-14T19:33:02.412Z,4.40
2023-05-14T19:35:30.134Z,4.63
2023-05-14T19:37:57.712Z,5.18
2023-05-14T19:40:25.249Z,6.72
2023-05-14T19:42:53.033Z,5.53
2023-05-14T19:45:20.574Z,5.20
2023-05-14T19:47:48.366Z,5.37
2023-05-14T19:50:17.490Z,5.43
2023-05-14T19:52:45.021Z,4.88
2023-05-14T19:55:12.559Z,5.10
2023-05-14T19:57:40.113Z,5.30
2023-05-14T20:00:10.450Z,5.40
2023-05-14T20:02:41.924Z,5.40
2023-05-14T20:05:10.486Z,5.05
2023-05-14T20:07:40.555Z,5.72
2023-05-14T20:10:09.193Z,5.80
2023-05-14T20:12:36.769Z,5.93
2023-05-14T20:15:04.816Z,5.68
2023-05-14T20:17:32.452Z,5.70
2023-05-14T20:20:00.008Z,5.75
2023-05-14T20:22:27.617Z,5.78
2023-05-14T20:24:56.456Z,5.63
2023-05-14T20:27:24.001Z,6.00
2023-05-14T20:29:53.847Z,5.72
2023-05-14T20:32:24.681Z,5.70
2023-05-14T20:34:52.343Z,5.60
2023-05-14T20:37:20.178Z,5.97
2023-05-14T20:39:47.922Z,5.40
2023-05-14T20:42:16.859Z,5.78
2023-05-14T20:44:44.517Z,5.47
2023-05-14T20:47:16.277Z,5.55
2023-05-14T20:49:44.072Z,5.50
2023-05-14T20:52:11.631Z,5.80
2023-05-14T20:54:39.211Z,5.47
2023-05-14T20:57:07.113Z,5.80
2023-05-14T20:59:36.049Z,5.50
2023-05-14T21:02:03.709Z,5.20
2023-05-14T21:04:31.426Z,5.35
2023-05-14T21:06:59.056Z,5.40
2023-05-14T21:09:27.225Z,5.47
2023-05-14T21:11:55.027Z,5.50
2023-05-14T21:14:22.711Z,5.40
2023-05-14T21:16:51.617Z,5.43
2023-05-14T21:19:19.247Z,5.40
2023-05-14T21:21:47.322Z,6.03
2023-05-14T21:24:16.645Z,5.43
2023-05-14T21:26:44.303Z,5.93
2023-05-14T21:29:11.979Z,5.35
2023-05-14T21:31:39.506Z,5.88
2023-05-14T21:34:08.390Z,6.20
2023-05-14T21:36:36.336Z,6.10
2023-05-14T21:39:03.930Z,5.90
2023-05-14T21:41:32.586Z,5.60
2023-05-14T21:44:00.293Z,5.88
2023-05-14T21:46:28.808Z,5.90
2023-05-14T21:48:56.509Z,6.10
2023-05-14T21:51:25.472Z,5.83
2023-05-14T21:53:53.020Z,5.97
2023-05-14T21:56:21.043Z,6.10
2023-05-14T21:58:48.648Z,5.90
2023-05-14T22:01:16.282Z,6.13
2023-05-14T22:03:43.896Z,6.10
2023-05-14T22:06:11.533Z,6.10
2023-05-14T22:08:40.519Z,6.32
2023-05-14T22:11:08.067Z,6.40
2023-05-14T22:13:40.581Z,6.00
2023-05-14T22:16:13.195Z,5.97
2023-05-14T22:18:41.548Z,6.05
2023-05-14T22:21:09.185Z,6.32
2023-05-14T22:23:37.430Z,6.15
2023-05-14T22:26:06.518Z,6.55
2023-05-14T22:28:34.033Z,5.90
2023-05-14T22:31:01.608Z,6.10
2023-05-14T22:33:29.166Z,6.43
2023-05-14T22:35:56.707Z,6.15
2023-05-14T22:38:24.318Z,6.35
2023-05-14T22:40:51.815Z,6.40
2023-05-14T22:43:20.661Z,6.72
2023-05-14T22:45:48.200Z,6.57
2023-05-14T22:48:15.736Z,6.32
2023-05-14T22:50:43.370Z,6.43
2023-05-14T22:53:10.957Z,6.70
2023-05-14T22:55:38.519Z,6.35
2023-05-14T22:58:06.116Z,6.05
2023-05-14T23:00:35.014Z,5.90
2023-05-14T23:03:02.574Z,6.93
2023-05-14T23:05:30.648Z,6.87
2023-05-14T23:07:58.257Z,6.38
2023-05-14T23:10:25.775Z,6.60
2023-05-14T23:12:53.317Z,7.10
2023-05-14T23:15:20.801Z,6.28
2023-05-14T23:17:49.825Z,7.30
2023-05-14T23:20:17.442Z,7.03
2023-05-14T23:22:44.990Z,6.90
2023-05-14T23:25:12.522Z,6.80
2023-05-14T23:27:40.290Z,6.70
2023-05-14T23:30:09.015Z,6.93
2023-05-14T23:32:36.557Z,6.50
2023-05-14T23:35:06.308Z,6.90
2023-05-14T23:37:36.636Z,7.13
2023-05-14T23:40:04.762Z,6.95
2023-05-14T23:42:32.259Z,6.83
2023-05-14T23:44:59.818Z,6.63
2023-05-14T23:47:27.429Z,6.97
2023-05-14T23:49:54.993Z,7.53
2023-05-14T23:52:23.858Z,7.28
2023-05-14T23:54:51.413Z,7.57
2023-05-14T23:57:19.069Z,7.32
2023-05-14T23:59:46.670Z,7.47
